createdAt,value
2023-03-05T00:01:18.058Z,2.80
2023-03-05T00:03:49.785Z,2.80
2023-03-05T00:06:26.944Z,2.80
2023-03-05T00:08:58.351Z,2.90
2023-03-05T00:11:36.416Z,2.90
2023-03-05T00:14:06.587Z,2.80
2023-03-05T00:16:33.976Z,2.80
2023-03-05T00:19:01.601Z,2.70
2023-03-05T00:21:34.115Z,2.70
2023-03-05T00:24:05.273Z,2.60
2023-03-05T00:26:34.335Z,2.60
2023-03-05T00:29:01.087Z,2.60
2023-03-05T00:31:35.390Z,2.30
2023-03-05T00:34:08.301Z,2.20
2023-03-05T00:36:39.304Z,2.20
2023-03-05T00:39:13.783Z,2.30
2023-03-05T00:41:40.740Z,2.30
2023-03-05T00:44:07.436Z,2.40
2023-03-05T00:46:49.322Z,2.40
2023-03-05T00:49:16.141Z,2.40
2023-03-05T00:51:42.882Z,2.50
2023-03-05T00:54:35.137Z,2.50
2023-03-05T00:57:03.334Z,2.60
2023-03-05T00:59:29.948Z,2.60
2023-03-05T01:01:56.669Z,2.60
2023-03-05T01:04:28.948Z,2.60
2023-03-05T01:06:55.491Z,2.60
2023-03-05T01:09:22.139Z,2.50
2023-03-05T01:11:48.772Z,2.60
2023-03-05T01:14:18.577Z,2.50
2023-03-05T01:16:45.323Z,2.50
2023-03-05T01:19:12.795Z,2.50
2023-03-05T01:21:42.421Z,2.50
2023-03-05T01:24:15.007Z,2.40
2023-03-05T01:26:41.705Z,2.40
2023-03-05T01:29:08.386Z,2.40
2023-03-05T01:31:35.225Z,2.40
2023-03-05T01:34:02.457Z,2.30
2023-03-05T01:36:29.162Z,2.30
2023-03-05T01:38:55.903Z,2.30
2023-03-05T01:41:22.584Z,2.40
2023-03-05T01:43:49.448Z,2.40
2023-03-05T01:46:38.662Z,2.30
2023-03-05T01:49:20.228Z,2.30
2023-03-05T01:52:02.890Z,2.40
2023-03-05T01:54:55.798Z,2.40
2023-03-05T01:57:31.096Z,2.50
2023-03-05T02:00:01.984Z,2.40
2023-03-05T02:02:29.419Z,2.50
2023-03-05T02:05:02.462Z,2.50
2023-03-05T02:07:31.100Z,2.50
2023-03-05T02:09:57.863Z,2.50
2023-03-05T02:12:24.675Z,2.60
2023-03-05T02:14:58.981Z,2.50
2023-03-05T02:17:27.777Z,2.50
2023-03-05T02:20:02.993Z,2.50
2023-03-05T02:22:29.671Z,2.60
2023-03-05T02:24:56.293Z,2.50
2023-03-05T02:27:34.708Z,2.50
2023-03-05T02:30:02.600Z,2.50
2023-03-05T02:32:29.461Z,2.50
2023-03-05T02:35:20.141Z,2.50
2023-03-05T02:37:47.005Z,2.50
2023-03-05T02:40:14.176Z,2.40
2023-03-05T02:42:41.400Z,2.40
2023-03-05T02:45:09.323Z,2.40
2023-03-05T02:47:35.930Z,2.50
2023-03-05T02:50:03.312Z,2.50
2023-03-05T02:52:31.215Z,2.50
2023-03-05T02:54:57.924Z,2.60
2023-03-05T02:57:24.759Z,2.60
2023-03-05T02:59:51.909Z,2.50
2023-03-05T03:02:18.603Z,2.50
2023-03-05T03:04:45.551Z,2.50
2023-03-05T03:07:13.338Z,2.40
2023-03-05T03:09:48.597Z,2.40
2023-03-05T03:12:26.262Z,2.30
2023-03-05T03:14:55.584Z,2.40
2023-03-05T03:17:26.858Z,2.50
2023-03-05T03:20:12.085Z,2.40
2023-03-05T03:22:53.740Z,2.40
2023-03-05T03:25:22.928Z,2.40
2023-03-05T03:27:49.627Z,2.40
2023-03-05T03:30:16.737Z,2.40
2023-03-05T03:32:43.814Z,2.40
2023-03-05T03:35:16.776Z,2.40
2023-03-05T03:37:50.355Z,2.30
2023-03-05T03:40:24.122Z,2.30
2023-03-05T03:42:54.440Z,2.40
2023-03-05T03:45:22.232Z,2.40
2023-03-05T03:48:01.514Z,2.30
2023-03-05T03:50:37.482Z,2.40
2023-03-05T03:53:09.619Z,2.40
2023-03-05T03:55:36.298Z,2.40
2023-03-05T03:58:03.350Z,2.40
2023-03-05T04:00:34.512Z,2.40
2023-03-05T04:03:09.278Z,2.40
2023-03-05T04:05:53.473Z,2.40
2023-03-05T04:08:20.179Z,2.30
2023-03-05T04:10:46.866Z,2.30
2023-03-05T04:13:19.110Z,2.20
2023-03-05T04:15:59.208Z,2.30
2023-03-05T04:18:28.539Z,2.30
2023-03-05T04:21:00.321Z,2.30
2023-03-05T04:23:32.190Z,2.30
2023-03-05T04:26:04.040Z,2.30
2023-03-05T04:28:31.236Z,2.20
2023-03-05T04:30:58.234Z,2.20
2023-03-05T04:33:25.187Z,2.20
2023-03-05T04:35:56.989Z,2.20
2023-03-05T04:38:23.791Z,2.30
2023-03-05T04:41:05.044Z,2.30
2023-03-05T04:43:31.709Z,2.20
2023-03-05T04:45:58.387Z,2.20
2023-03-05T04:48:43.467Z,2.20
2023-03-05T04:51:34.714Z,2.30
2023-03-05T04:54:01.379Z,2.20
2023-03-05T04:56:28.024Z,2.20
2023-03-05T04:58:57.973Z,2.20
2023-03-05T05:01:27.704Z,2.20
2023-03-05T05:03:57.446Z,2.20
2023-03-05T05:06:36.925Z,2.20
2023-03-05T05:09:03.809Z,2.20
2023-03-05T05:11:30.413Z,2.30
2023-03-05T05:13:57.183Z,2.30
2023-03-05T05:16:24.088Z,2.30
2023-03-05T05:19:05.244Z,2.30
2023-03-05T05:21:42.017Z,2.40
2023-03-05T05:24:08.692Z,2.40
2023-03-05T05:26:35.694Z,2.40
2023-03-05T05:29:02.378Z,2.50
2023-03-05T05:31:29.033Z,2.50
2023-03-05T05:33:55.706Z,2.50
2023-03-05T05:36:22.803Z,2.40
2023-03-05T05:41:33.354Z,2.40
2023-03-05T05:44:00.041Z,2.50
2023-03-05T05:46:29.866Z,2.40
2023-03-05T05:48:56.532Z,2.40
2023-03-05T05:51:23.885Z,2.40
2023-03-05T05:54:06.046Z,2.40
2023-03-05T05:56:45.064Z,2.40
2023-03-05T05:59:11.887Z,2.40
2023-03-05T06:01:38.589Z,2.40
2023-03-05T06:04:08.725Z,2.40
2023-03-05T06:06:41.150Z,2.40
2023-03-05T06:09:07.805Z,2.40
2023-03-05T06:11:34.538Z,2.40
2023-03-05T06:14:03.800Z,2.40
2023-03-05T06:16:36.651Z,2.30
2023-03-05T06:19:06.395Z,2.40
2023-03-05T06:21:33.468Z,2.40
2023-03-05T06:24:00.145Z,2.40
2023-03-05T06:26:26.963Z,2.50
2023-03-05T06:28:54.067Z,2.50
2023-03-05T06:31:23.414Z,2.50
2023-03-05T06:34:06.380Z,2.50
2023-03-05T06:36:33.077Z,2.50
2023-03-05T06:38:59.826Z,2.60
2023-03-05T06:41:29.389Z,2.60
2023-03-05T06:43:56.980Z,2.60
2023-03-05T06:46:28.879Z,2.80
2023-03-05T06:48:57.924Z,2.80
2023-03-05T06:51:28.446Z,2.80
2023-03-05T06:53:56.684Z,2.80
2023-03-05T06:56:23.513Z,2.90
2023-03-05T06:58:51.895Z,2.80
2023-03-05T07:01:20.543Z,2.90
2023-03-05T07:03:52.562Z,2.80
2023-03-05T07:06:19.951Z,2.80
2023-03-05T07:08:47.068Z,2.90
2023-03-05T07:11:16.685Z,2.90
2023-03-05T07:13:43.839Z,2.90
2023-03-05T07:16:15.586Z,2.90
2023-03-05T07:18:42.531Z,3.00
2023-03-05T07:21:12.877Z,2.90
2023-03-05T07:23:39.638Z,3.00
2023-03-05T07:26:06.967Z,3.00
2023-03-05T07:28:34.496Z,3.10
2023-03-05T07:31:04.557Z,3.20
2023-03-05T07:33:32.180Z,3.30
2023-03-05T07:35:59.026Z,3.30
2023-03-05T07:38:25.698Z,3.30
2023-03-05T07:40:52.393Z,3.40
2023-03-05T07:43:19.326Z,3.50
2023-03-05T07:45:46.632Z,3.60
2023-03-05T07:48:16.143Z,3.40
2023-03-05T07:50:43.678Z,3.40
2023-03-05T07:53:21.035Z,3.60
2023-03-05T07:55:48.218Z,3.50
2023-03-05T07:58:14.950Z,3.60
2023-03-05T08:00:44.686Z,3.50
2023-03-05T08:03:14.409Z,3.60
2023-03-05T08:05:41.445Z,3.50
2023-03-05T08:08:08.787Z,3.40
2023-03-05T08:10:36.642Z,3.50
2023-03-05T08:13:03.700Z,3.60
2023-03-05T08:15:36.261Z,3.80
2023-03-05T08:18:06.798Z,3.80
2023-03-05T08:20:36.374Z,4.00
2023-03-05T08:23:03.801Z,3.90
2023-03-05T08:25:31.649Z,3.90
2023-03-05T08:28:03.367Z,3.80
2023-03-05T08:30:32.037Z,3.80
2023-03-05T08:32:58.713Z,3.70
2023-03-05T08:35:25.566Z,3.80
2023-03-05T08:37:52.292Z,3.80
2023-03-05T08:40:19.324Z,3.80
2023-03-05T08:42:56.935Z,3.90
2023-03-05T08:45:23.738Z,3.80
2023-03-05T08:47:50.377Z,3.80
2023-03-05T08:50:18.237Z,3.90
2023-03-05T08:52:44.941Z,3.90
2023-03-05T08:55:12.739Z,4.00
2023-03-05T08:57:39.510Z,4.00
2023-03-05T09:00:07.417Z,3.80
2023-03-05T09:02:34.133Z,3.50
2023-03-05T09:05:00.833Z,3.50
2023-03-05T09:07:27.545Z,3.40
2023-03-05T09:09:54.203Z,3.50
2023-03-05T09:12:20.936Z,3.50
2023-03-05T09:14:50.459Z,3.50
2023-03-05T09:17:18.315Z,3.60
2023-03-05T09:19:44.979Z,3.60
2023-03-05T09:22:11.726Z,3.70
2023-03-05T09:24:38.613Z,3.70
2023-03-05T09:27:09.228Z,3.70
2023-03-05T09:29:35.899Z,3.60
2023-03-05T09:32:02.830Z,3.50
2023-03-05T09:37:18.701Z,3.40
2023-03-05T09:39:45.383Z,3.40
2023-03-05T09:42:12.046Z,3.40
2023-03-05T09:45:00.302Z,3.60
2023-03-05T09:47:45.370Z,3.70
2023-03-05T09:50:31.709Z,3.80
2023-03-05T09:53:12.350Z,3.70
2023-03-05T09:56:24.509Z,3.80
2023-03-05T09:58:56.149Z,3.80
2023-03-05T10:01:38.690Z,3.70
2023-03-05T10:04:17.119Z,3.70
2023-03-05T10:06:56.589Z,3.60
2023-03-05T10:10:06.050Z,3.60
2023-03-05T10:12:42.879Z,3.40
2023-03-05T10:15:15.988Z,3.20
2023-03-05T10:18:28.939Z,3.20
2023-03-05T10:21:03.604Z,3.00
2023-03-05T10:23:42.208Z,3.10
2023-03-05T10:26:14.575Z,3.20
2023-03-05T10:29:10.700Z,3.20
2023-03-05T10:32:01.311Z,3.20
2023-03-05T10:34:58.368Z,3.10
2023-03-05T10:37:50.919Z,3.10
2023-03-05T10:40:30.001Z,3.10
2023-03-05T10:43:22.348Z,3.10
2023-03-05T10:45:52.515Z,3.10
2023-03-05T10:48:34.495Z,3.20
2023-03-05T10:51:12.296Z,3.10
2023-03-05T10:53:51.110Z,3.20
2023-03-05T10:56:38.509Z,3.10
2023-03-05T10:59:10.249Z,3.10
2023-03-05T11:01:37.590Z,3.20
2023-03-05T11:04:31.780Z,3.20
2023-03-05T11:06:58.500Z,3.20
2023-03-05T11:09:33.720Z,3.10
2023-03-05T11:12:16.900Z,3.10
2023-03-05T11:14:46.864Z,3.30
2023-03-05T11:17:48.924Z,3.30
2023-03-05T11:20:27.366Z,3.30
2023-03-05T11:23:10.013Z,3.20
2023-03-05T11:25:54.172Z,3.40
2023-03-05T11:28:34.084Z,3.50
2023-03-05T11:31:08.043Z,3.50
2023-03-05T11:33:36.741Z,3.50
2023-03-05T11:36:13.721Z,3.60
2023-03-05T11:38:55.428Z,3.70
2023-03-05T11:41:41.813Z,3.80
2023-03-05T11:44:25.960Z,4.00
2023-03-05T11:47:24.314Z,4.00
2023-03-05T11:49:59.228Z,4.00
2023-03-05T11:52:32.212Z,4.20
2023-03-05T11:55:28.046Z,4.20
2023-03-05T11:58:19.026Z,4.20
2023-03-05T12:00:47.127Z,4.40
2023-03-05T12:03:22.225Z,4.30
2023-03-05T12:05:56.018Z,4.30
2023-03-05T12:08:29.130Z,4.30
2023-03-05T12:10:56.679Z,4.20
2023-03-05T12:13:45.522Z,4.10
2023-03-05T12:16:53.844Z,4.10
2023-03-05T12:19:40.500Z,3.80
2023-03-05T12:22:22.939Z,3.80
2023-03-05T12:24:51.187Z,3.70
2023-03-05T12:27:36.720Z,3.70
2023-03-05T12:30:05.146Z,3.80
2023-03-05T12:32:32.003Z,3.90
2023-03-05T12:35:05.920Z,4.00
2023-03-05T12:37:32.490Z,3.90
2023-03-05T12:40:04.287Z,4.20
2023-03-05T12:42:31.468Z,4.10
2023-03-05T12:45:10.235Z,4.30
2023-03-05T12:47:40.240Z,4.50
2023-03-05T12:50:29.187Z,4.60
2023-03-05T12:53:14.582Z,4.30
2023-03-05T12:55:46.691Z,4.30
2023-03-05T12:58:29.649Z,4.30
2023-03-05T13:01:10.823Z,4.20
2023-03-05T13:03:45.537Z,4.10
2023-03-05T13:06:35.864Z,4.30
2023-03-05T13:09:08.968Z,4.20
2023-03-05T13:11:39.072Z,4.10
2023-03-05T13:14:28.573Z,4.10
2023-03-05T13:16:55.609Z,4.00
2023-03-05T13:19:23.060Z,4.00
2023-03-05T13:22:01.272Z,3.90
2023-03-05T13:24:29.200Z,3.90
2023-03-05T13:26:56.535Z,4.00
2023-03-05T13:29:30.554Z,3.80
2023-03-05T13:32:33.677Z,3.80
2023-03-05T13:35:01.308Z,3.90
2023-03-05T13:37:34.418Z,3.80
2023-03-05T13:40:19.207Z,3.80
2023-03-05T13:42:46.166Z,3.80
2023-03-05T13:45:21.680Z,3.80
2023-03-05T13:48:00.750Z,3.70
2023-03-05T13:50:40.908Z,3.60
2023-03-05T13:53:19.340Z,3.70
2023-03-05T13:55:49.305Z,3.70
2023-03-05T13:58:41.302Z,3.70
2023-03-05T14:01:34.104Z,3.80
2023-03-05T14:04:17.704Z,3.80
2023-03-05T14:07:28.097Z,3.80
2023-03-05T14:09:56.676Z,3.80
2023-03-05T14:12:40.808Z,3.70
2023-03-05T14:15:28.853Z,3.60
2023-03-05T14:18:28.036Z,3.70
2023-03-05T14:21:11.324Z,3.70
2023-03-05T14:23:46.798Z,3.60
2023-03-05T14:26:31.659Z,3.50
2023-03-05T14:29:10.679Z,3.60
2023-03-05T14:31:48.152Z,3.50
2023-03-05T14:34:28.500Z,3.40
2023-03-05T14:36:58.669Z,3.50
2023-03-05T14:39:34.917Z,3.40
2023-03-05T14:42:28.247Z,3.50
2023-03-05T14:44:56.295Z,3.50
2023-03-05T14:47:23.946Z,3.70
2023-03-05T14:49:50.716Z,3.70
2023-03-05T14:52:19.680Z,3.70
2023-03-05T14:54:47.197Z,3.70
2023-03-05T14:57:21.112Z,3.70
2023-03-05T14:59:48.021Z,3.70
2023-03-05T15:02:20.966Z,3.80
2023-03-05T15:04:48.278Z,3.60
2023-03-05T15:07:22.481Z,3.60
2023-03-05T15:09:49.221Z,3.60
2023-03-05T15:12:17.444Z,3.50
2023-03-05T15:14:44.275Z,3.40
2023-03-05T15:17:16.786Z,3.40
2023-03-05T15:19:43.690Z,3.50
2023-03-05T15:22:12.336Z,3.50
2023-03-05T15:24:39.083Z,3.50
2023-03-05T15:27:06.310Z,3.40
2023-03-05T15:29:38.725Z,3.50
2023-03-05T15:32:05.677Z,3.60
2023-03-05T15:34:33.835Z,3.70
2023-03-05T15:37:01.867Z,3.70
2023-03-05T15:39:28.706Z,3.60
2023-03-05T15:41:55.985Z,3.60
2023-03-05T15:44:23.206Z,3.60
2023-03-05T15:46:49.947Z,3.60
2023-03-05T15:49:17.074Z,3.60
2023-03-05T15:51:43.899Z,3.60
2023-03-05T15:54:10.975Z,3.60
2023-03-05T15:56:37.885Z,3.70
2023-03-05T15:59:05.102Z,3.50
2023-03-05T16:01:31.892Z,3.50
2023-03-05T16:03:58.593Z,3.50
2023-03-05T16:06:27.022Z,3.50
2023-03-05T16:08:59.200Z,3.40
2023-03-05T16:11:27.131Z,3.40
2023-03-05T16:13:54.142Z,3.50
2023-03-05T16:16:23.518Z,3.40
2023-03-05T16:18:50.429Z,3.40
2023-03-05T16:21:17.403Z,3.30
2023-03-05T16:23:44.305Z,3.30
2023-03-05T16:26:11.423Z,3.20
2023-03-05T16:28:38.213Z,3.10
2023-03-05T16:31:07.482Z,3.10
2023-03-05T16:33:34.241Z,3.10
2023-03-05T16:36:26.226Z,3.10
2023-03-05T16:38:55.082Z,3.00
2023-03-05T16:41:29.227Z,3.10
2023-03-05T16:43:56.540Z,3.00
2023-03-05T16:46:29.308Z,3.00
2023-03-05T16:48:56.566Z,3.00
2023-03-05T16:51:23.874Z,3.10
2023-03-05T16:53:50.876Z,3.00
2023-03-05T16:56:17.868Z,2.90
2023-03-05T16:58:44.508Z,2.80
2023-03-05T17:01:14.228Z,2.80
2023-03-05T17:03:41.630Z,2.90
2023-03-05T17:06:10.713Z,2.80
2023-03-05T17:08:37.430Z,2.80
2023-03-05T17:11:04.279Z,2.80
2023-03-05T17:13:30.937Z,2.80
2023-03-05T17:15:57.825Z,2.80
2023-03-05T17:18:24.659Z,2.90
2023-03-05T17:20:51.612Z,2.80
2023-03-05T17:23:18.299Z,2.90
2023-03-05T17:25:45.024Z,2.90
2023-03-05T17:28:11.743Z,2.90
2023-03-05T17:30:38.879Z,2.90
2023-03-05T17:33:06.160Z,3.00
2023-03-05T17:35:34.004Z,3.00
2023-03-05T17:38:07.396Z,3.00
2023-03-05T17:40:34.604Z,3.00
2023-03-05T17:43:01.377Z,2.90
2023-03-05T17:45:28.180Z,2.90
2023-03-05T17:47:55.893Z,2.90
2023-03-05T17:50:23.424Z,2.90
2023-03-05T17:52:53.104Z,3.00
2023-03-05T17:55:20.212Z,3.00
2023-03-05T17:57:47.838Z,2.90
2023-03-05T18:00:17.166Z,2.80
2023-03-05T18:02:44.324Z,2.80
2023-03-05T18:05:11.874Z,2.80
2023-03-05T18:07:38.752Z,2.80
2023-03-05T18:10:08.122Z,2.80
2023-03-05T18:12:35.147Z,2.90
2023-03-05T18:15:02.614Z,2.90
2023-03-05T18:17:29.323Z,2.90
2023-03-05T18:19:56.097Z,2.80
2023-03-05T18:22:23.299Z,2.90
2023-03-05T18:24:50.080Z,2.90
2023-03-05T18:27:16.820Z,2.90
2023-03-05T18:29:43.547Z,2.90
2023-03-05T18:32:10.447Z,2.80
2023-03-05T18:34:37.225Z,2.90
2023-03-05T18:37:03.999Z,2.90
2023-03-05T18:39:33.390Z,2.80
2023-03-05T18:42:00.457Z,2.80
2023-03-05T18:44:27.197Z,2.80
2023-03-05T18:46:54.016Z,2.80
2023-03-05T18:49:20.783Z,2.80
2023-03-05T18:51:47.734Z,2.80
2023-03-05T18:54:14.441Z,2.80
2023-03-05T18:56:41.122Z,2.70
2023-03-05T18:59:07.941Z,2.80
2023-03-05T19:01:34.771Z,2.90
2023-03-05T19:04:01.532Z,2.90
2023-03-05T19:06:28.434Z,2.90
2023-03-05T19:08:58.530Z,2.90
2023-03-05T19:11:25.220Z,2.90
2023-03-05T19:13:52.305Z,2.90
2023-03-05T19:16:23.910Z,2.90
2023-03-05T19:19:16.465Z,2.80
2023-03-05T19:21:45.412Z,2.90
2023-03-05T19:24:12.446Z,2.80
2023-03-05T19:26:40.070Z,2.90
2023-03-05T19:29:07.590Z,2.90
2023-03-05T19:31:34.513Z,2.90
2023-03-05T19:34:01.740Z,2.90
2023-03-05T19:36:28.738Z,2.90
2023-03-05T19:38:55.728Z,2.90
2023-03-05T19:41:22.415Z,2.90
2023-03-05T19:43:52.192Z,2.90
2023-03-05T19:46:19.143Z,2.90
2023-03-05T19:48:46.448Z,2.90
2023-03-05T19:51:16.473Z,2.90
2023-03-05T19:53:43.500Z,2.90
2023-03-05T19:56:11.163Z,2.90
2023-03-05T19:58:38.539Z,2.90
2023-03-05T20:01:11.034Z,2.90
2023-03-05T20:03:38.495Z,2.80
2023-03-05T20:06:06.525Z,2.90
2023-03-05T20:08:33.869Z,2.90
2023-03-05T20:11:01.334Z,2.90
2023-03-05T20:13:28.652Z,2.80
2023-03-05T20:15:55.530Z,2.80
2023-03-05T20:18:22.294Z,2.80
2023-03-05T20:21:01.920Z,2.80
2023-03-05T20:23:29.234Z,2.80
2023-03-05T20:25:56.665Z,2.70
2023-03-05T20:28:29.787Z,2.80
2023-03-05T20:30:59.064Z,2.80
2023-03-05T20:33:27.417Z,2.80
2023-03-05T20:35:57.537Z,2.80
2023-03-05T20:38:25.830Z,2.80
2023-03-05T20:40:55.159Z,2.80
2023-03-05T20:43:25.834Z,2.80
2023-03-05T20:45:54.855Z,2.80
2023-03-05T20:48:21.584Z,2.70
2023-03-05T20:50:48.295Z,2.80
2023-03-05T20:53:18.421Z,2.80
2023-03-05T20:55:46.322Z,2.80
2023-03-05T20:58:13.560Z,2.70
2023-03-05T21:00:43.908Z,2.70
2023-03-05T21:03:10.822Z,2.70
2023-03-05T21:05:37.800Z,2.80
2023-03-05T21:08:07.988Z,2.70
2023-03-05T21:10:34.733Z,2.70
2023-03-05T21:13:01.442Z,2.70
2023-03-05T21:15:30.236Z,2.70
2023-03-05T21:17:57.704Z,2.60
2023-03-05T21:20:28.259Z,2.60
2023-03-05T21:22:56.322Z,2.60
2023-03-05T21:25:27.470Z,2.60
2023-03-05T21:27:57.396Z,2.60
2023-03-05T21:30:43.555Z,2.60
2023-03-05T21:33:13.596Z,2.50
2023-03-05T21:35:47.056Z,2.40
2023-03-05T21:38:14.257Z,2.40
2023-03-05T21:40:45.390Z,2.40
2023-03-05T21:43:13.126Z,2.50
2023-03-05T21:45:40.368Z,2.40
2023-03-05T21:48:07.898Z,2.40
2023-03-05T21:50:35.446Z,2.40
2023-03-05T21:53:02.813Z,2.40
2023-03-05T21:55:46.373Z,2.40
2023-03-05T21:58:13.270Z,2.50
2023-03-05T22:00:39.931Z,2.50
2023-03-05T22:03:06.541Z,2.40
2023-03-05T22:05:33.308Z,2.50
2023-03-05T22:08:00.037Z,2.50
2023-03-05T22:10:26.855Z,2.40
2023-03-05T22:13:11.268Z,2.40
2023-03-05T22:15:50.589Z,2.30
2023-03-05T22:18:19.918Z,2.40
2023-03-05T22:20:47.030Z,2.40
2023-03-05T22:23:14.506Z,2.40
2023-03-05T22:25:42.039Z,2.40
2023-03-05T22:28:10.601Z,2.50
2023-03-05T22:30:43.144Z,2.50
2023-03-05T22:33:09.973Z,2.50
2023-03-05T22:35:39.985Z,2.50
2023-03-05T22:38:07.287Z,2.50
2023-03-05T22:40:34.243Z,2.60
2023-03-05T22:43:00.877Z,2.50
2023-03-05T22:45:30.466Z,2.40
2023-03-05T22:47:57.057Z,2.40
2023-03-05T22:50:24.322Z,2.40
2023-03-05T22:52:51.181Z,2.40
2023-03-05T22:55:18.021Z,2.40
2023-03-05T22:57:46.820Z,2.40
2023-03-05T23:00:17.237Z,2.40
2023-03-05T23:02:44.548Z,2.40
2023-03-05T23:05:11.704Z,2.40
2023-03-05T23:07:40.664Z,2.40
2023-03-05T23:10:12.241Z,2.40
2023-03-05T23:12:43.923Z,2.40
2023-03-05T23:15:16.678Z,2.40
2023-03-05T23:17:43.306Z,2.40
2023-03-05T23:20:14.413Z,2.30
2023-03-05T23:22:41.215Z,2.30
2023-03-05T23:25:08.395Z,2.30
2023-03-05T23:27:35.028Z,2.30
2023-03-05T23:30:34.531Z,2.30
2023-03-05T23:33:36.488Z,2.30
2023-03-05T23:36:03.417Z,2.30
2023-03-05T23:38:30.433Z,2.30
2023-03-05T23:41:01.061Z,2.30
2023-03-05T23:43:28.466Z,2.40
2023-03-05T23:45:55.332Z,2.50
2023-03-05T23:48:26.722Z,2.40
2023-03-05T23:50:54.120Z,2.40
2023-03-05T23:53:23.764Z,2.30
2023-03-05T23:55:50.956Z,2.30
2023-03-05T23:58:21.704Z,2.30
